sensor_id;sensor_type;location;lat;lon;timestamp;P1;durP1;ratioP1;P2;durP2;ratioP2
64199;SDS011;50516;52.272;5.136;2024-02-04T00:00:42;9.85;;;4.43;;
64199;SDS011;50516;52.272;5.136;2024-02-04T00:03:07;10.18;;;3.67;;
64199;SDS011;50516;52.272;5.136;2024-02-04T00:05:32;7.35;;;2.83;;
64199;SDS011;50516;52.272;5.136;2024-02-04T00:07:58;9.65;;;3.63;;
64199;SDS011;50516;52.272;5.136;2024-02-04T00:10:23;9.65;;;3.40;;
64199;SDS011;50516;52.272;5.136;2024-02-04T00:12:48;8.07;;;3.50;;
64199;SDS011;50516;52.272;5.136;2024-02-04T00:15:14;12.43;;;4.20;;
64199;SDS011;50516;52.272;5.136;2024-02-04T00:17:39;11.70;;;5.10;;
64199;SDS011;50516;52.272;5.136;2024-02-04T00:20:04;11.70;;;5.25;;
64199;SDS011;50516;52.272;5.136;2024-02-04T00:22:31;10.98;;;5.40;;
64199;SDS011;50516;52.272;5.136;2024-02-04T00:24:58;14.73;;;6.68;;
64199;SDS011;50516;52.272;5.136;2024-02-04T00:27:29;13.75;;;6.82;;
64199;SDS011;50516;52.272;5.136;2024-02-04T00:29:54;16.67;;;7.95;;
64199;SDS011;50516;52.272;5.136;2024-02-04T00:32:20;14.77;;;7.50;;
64199;SDS011;50516;52.272;5.136;2024-02-04T00:34:45;20.98;;;8.50;;
64199;SDS011;50516;52.272;5.136;2024-02-04T00:37:10;19.85;;;8.70;;
64199;SDS011;50516;52.272;5.136;2024-02-04T00:39:35;17.48;;;8.88;;
64199;SDS011;50516;52.272;5.136;2024-02-04T00:42:01;22.63;;;11.05;;
64199;SDS011;50516;52.272;5.136;2024-02-04T00:44:26;25.48;;;10.50;;
64199;SDS011;50516;52.272;5.136;2024-02-04T00:46:51;24.85;;;11.75;;
64199;SDS011;50516;52.272;5.136;2024-02-04T00:49:17;27.70;;;10.43;;
64199;SDS011;50516;52.272;5.136;2024-02-04T00:51:42;23.08;;;11.18;;
64199;SDS011;50516;52.272;5.136;2024-02-04T00:54:07;28.27;;;11.45;;
64199;SDS011;50516;52.272;5.136;2024-02-04T00:56:33;26.85;;;10.80;;
64199;SDS011;50516;52.272;5.136;2024-02-04T00:58:58;33.90;;;12.02;;
64199;SDS011;50516;52.272;5.136;2024-02-04T01:01:23;26.73;;;10.68;;
64199;SDS011;50516;52.272;5.136;2024-02-04T01:03:49;23.95;;;9.35;;
64199;SDS011;50516;52.272;5.136;2024-02-04T01:06:14;22.75;;;7.70;;
64199;SDS011;50516;52.272;5.136;2024-02-04T01:08:39;25.83;;;7.75;;
64199;SDS011;50516;52.272;5.136;2024-02-04T01:11:05;20.38;;;7.13;;
64199;SDS011;50516;52.272;5.136;2024-02-04T01:13:30;17.67;;;7.72;;
64199;SDS011;50516;52.272;5.136;2024-02-04T01:15:56;21.90;;;7.00;;
64199;SDS011;50516;52.272;5.136;2024-02-04T01:18:21;26.75;;;6.97;;
64199;SDS011;50516;52.272;5.136;2024-02-04T01:20:46;18.02;;;6.32;;
64199;SDS011;50516;52.272;5.136;2024-02-04T01:23:12;15.40;;;6.20;;
64199;SDS011;50516;52.272;5.136;2024-02-04T01:25:38;13.05;;;5.65;;
64199;SDS011;50516;52.272;5.136;2024-02-04T01:28:03;13.77;;;5.90;;
64199;SDS011;50516;52.272;5.136;2024-02-04T01:30:29;14.50;;;6.82;;
64199;SDS011;50516;52.272;5.136;2024-02-04T01:32:56;18.65;;;5.18;;
64199;SDS011;50516;52.272;5.136;2024-02-04T01:35:21;11.80;;;4.97;;
64199;SDS011;50516;52.272;5.136;2024-02-04T01:37:47;13.82;;;4.30;;
64199;SDS011;50516;52.272;5.136;2024-02-04T01:40:13;22.65;;;5.50;;
64199;SDS011;50516;52.272;5.136;2024-02-04T01:42:39;17.33;;;4.72;;
64199;SDS011;50516;52.272;5.136;2024-02-04T01:45:04;18.25;;;5.10;;
64199;SDS011;50516;52.272;5.136;2024-02-04T01:47:30;20.75;;;5.50;;
64199;SDS011;50516;52.272;5.136;2024-02-04T01:49:56;13.52;;;4.78;;
64199;SDS011;50516;52.272;5.136;2024-02-04T01:52:21;17.10;;;5.38;;
64199;SDS011;50516;52.272;5.136;2024-02-04T01:54:47;16.90;;;5.22;;
64199;SDS011;50516;52.272;5.136;2024-02-04T01:57:12;14.70;;;4.05;;
64199;SDS011;50516;52.272;5.136;2024-02-04T01:59:39;17.52;;;4.68;;
64199;SDS011;50516;52.272;5.136;2024-02-04T02:02:05;11.27;;;3.45;;
64199;SDS011;50516;52.272;5.136;2024-02-04T02:04:30;14.85;;;4.30;;
64199;SDS011;50516;52.272;5.136;2024-02-04T02:06:56;15.98;;;4.78;;
64199;SDS011;50516;52.272;5.136;2024-02-04T02:09:24;12.85;;;3.70;;
64199;SDS011;50516;52.272;5.136;2024-02-04T02:12:01;16.05;;;5.10;;
64199;SDS011;50516;52.272;5.136;2024-02-04T02:14:33;10.10;;;3.90;;
64199;SDS011;50516;52.272;5.136;2024-02-04T02:17:03;15.77;;;4.05;;
64199;SDS011;50516;52.272;5.136;2024-02-04T02:22:31;9.60;;;3.65;;
64199;SDS011;50516;52.272;5.136;2024-02-04T02:25:10;11.07;;;4.25;;
64199;SDS011;50516;52.272;5.136;2024-02-04T02:27:45;11.88;;;4.97;;
64199;SDS011;50516;52.272;5.136;2024-02-04T02:30:14;19.67;;;5.72;;
64199;SDS011;50516;52.272;5.136;2024-02-04T02:32:41;12.52;;;4.40;;
64199;SDS011;50516;52.272;5.136;2024-02-04T02:35:07;17.63;;;4.65;;
64199;SDS011;50516;52.272;5.136;2024-02-04T02:40:18;14.20;;;4.13;;
64199;SDS011;50516;52.272;5.136;2024-02-04T02:42:48;10.70;;;3.92;;
64199;SDS011;50516;52.272;5.136;2024-02-04T02:45:14;9.60;;;4.07;;
64199;SDS011;50516;52.272;5.136;2024-02-04T02:47:41;13.52;;;4.15;;
64199;SDS011;50516;52.272;5.136;2024-02-04T02:50:09;12.52;;;5.10;;
64199;SDS011;50516;52.272;5.136;2024-02-04T02:52:34;12.20;;;4.03;;
64199;SDS011;50516;52.272;5.136;2024-02-04T02:55:00;15.95;;;4.78;;
64199;SDS011;50516;52.272;5.136;2024-02-04T02:57:25;11.70;;;4.43;;
64199;SDS011;50516;52.272;5.136;2024-02-04T02:59:50;11.25;;;4.38;;
64199;SDS011;50516;52.272;5.136;2024-02-04T03:02:16;10.20;;;5.00;;
64199;SDS011;50516;52.272;5.136;2024-02-04T03:04:41;12.15;;;5.28;;
64199;SDS011;50516;52.272;5.136;2024-02-04T03:07:06;11.18;;;5.13;;
64199;SDS011;50516;52.272;5.136;2024-02-04T03:09:32;15.88;;;5.15;;
64199;SDS011;50516;52.272;5.136;2024-02-04T03:11:58;16.25;;;5.60;;
64199;SDS011;50516;52.272;5.136;2024-02-04T03:14:23;16.23;;;5.57;;
64199;SDS011;50516;52.272;5.136;2024-02-04T03:16:48;10.43;;;5.43;;
64199;SDS011;50516;52.272;5.136;2024-02-04T03:19:14;18.23;;;6.38;;
64199;SDS011;50516;52.272;5.136;2024-02-04T03:21:39;18.92;;;5.95;;
64199;SDS011;50516;52.272;5.136;2024-02-04T03:24:04;18.00;;;6.47;;
64199;SDS011;50516;52.272;5.136;2024-02-04T03:26:30;23.25;;;6.68;;
64199;SDS011;50516;52.272;5.136;2024-02-04T03:28:55;14.85;;;5.88;;
64199;SDS011;50516;52.272;5.136;2024-02-04T03:31:21;19.98;;;6.43;;
64199;SDS011;50516;52.272;5.136;2024-02-04T03:33:47;14.05;;;6.22;;
64199;SDS011;50516;52.272;5.136;2024-02-04T03:36:15;18.10;;;7.45;;
64199;SDS011;50516;52.272;5.136;2024-02-04T03:38:43;15.93;;;5.03;;
64199;SDS011;50516;52.272;5.136;2024-02-04T03:41:08;21.60;;;6.15;;
64199;SDS011;50516;52.272;5.136;2024-02-04T03:43:35;16.05;;;4.85;;
64199;SDS011;50516;52.272;5.136;2024-02-04T03:46:01;20.45;;;5.32;;
64199;SDS011;50516;52.272;5.136;2024-02-04T03:48:26;11.35;;;4.55;;
64199;SDS011;50516;52.272;5.136;2024-02-04T03:50:51;18.77;;;4.82;;
64199;SDS011;50516;52.272;5.136;2024-02-04T03:53:17;14.15;;;4.18;;
64199;SDS011;50516;52.272;5.136;2024-02-04T03:55:43;12.88;;;4.22;;
64199;SDS011;50516;52.272;5.136;2024-02-04T03:58:09;14.43;;;3.70;;
64199;SDS011;50516;52.272;5.136;2024-02-04T04:00:34;12.35;;;3.58;;
64199;SDS011;50516;52.272;5.136;2024-02-04T04:02:59;15.45;;;4.85;;
64199;SDS011;50516;52.272;5.136;2024-02-04T04:05:25;9.75;;;3.47;;
64199;SDS011;50516;52.272;5.136;2024-02-04T04:07:51;10.93;;;3.22;;
64199;SDS011;50516;52.272;5.136;2024-02-04T04:10:17;11.02;;;3.70;;
64199;SDS011;50516;52.272;5.136;2024-02-04T04:12:42;10.25;;;3.67;;
64199;SDS011;50516;52.272;5.136;2024-02-04T04:15:07;17.92;;;4.93;;
64199;SDS011;50516;52.272;5.136;2024-02-04T04:17:33;11.85;;;3.30;;
64199;SDS011;50516;52.272;5.136;2024-02-04T04:19:58;13.70;;;4.43;;
64199;SDS011;50516;52.272;5.136;2024-02-04T04:22:23;9.48;;;3.15;;
64199;SDS011;50516;52.272;5.136;2024-02-04T04:24:48;14.45;;;3.55;;
64199;SDS011;50516;52.272;5.136;2024-02-04T04:27:14;10.73;;;2.83;;
64199;SDS011;50516;52.272;5.136;2024-02-04T04:29:39;13.38;;;3.10;;
64199;SDS011;50516;52.272;5.136;2024-02-04T04:32:04;11.02;;;2.78;;
64199;SDS011;50516;52.272;5.136;2024-02-04T04:34:30;13.63;;;3.15;;
64199;SDS011;50516;52.272;5.136;2024-02-04T04:36:55;11.23;;;3.00;;
64199;SDS011;50516;52.272;5.136;2024-02-04T04:39:21;8.93;;;2.60;;
64199;SDS011;50516;52.272;5.136;2024-02-04T04:41:46;12.75;;;3.15;;
64199;SDS011;50516;52.272;5.136;2024-02-04T04:44:11;11.18;;;3.42;;
64199;SDS011;50516;52.272;5.136;2024-02-04T04:46:40;12.85;;;3.20;;
64199;SDS011;50516;52.272;5.136;2024-02-04T04:49:05;12.05;;;3.38;;
64199;SDS011;50516;52.272;5.136;2024-02-04T04:51:31;14.95;;;5.00;;
64199;SDS011;50516;52.272;5.136;2024-02-04T04:53:57;14.52;;;4.32;;
64199;SDS011;50516;52.272;5.136;2024-02-04T04:56:22;13.13;;;4.32;;
64199;SDS011;50516;52.272;5.136;2024-02-04T04:58:47;20.25;;;3.97;;
64199;SDS011;50516;52.272;5.136;2024-02-04T05:01:14;12.85;;;4.93;;
64199;SDS011;50516;52.272;5.136;2024-02-04T05:03:40;11.30;;;3.25;;
64199;SDS011;50516;52.272;5.136;2024-02-04T05:06:05;15.27;;;4.60;;
64199;SDS011;50516;52.272;5.136;2024-02-04T05:08:30;14.70;;;4.35;;
64199;SDS011;50516;52.272;5.136;2024-02-04T05:10:56;14.57;;;3.80;;
64199;SDS011;50516;52.272;5.136;2024-02-04T05:13:21;13.73;;;3.72;;
64199;SDS011;50516;52.272;5.136;2024-02-04T05:15:46;14.52;;;3.75;;
64199;SDS011;50516;52.272;5.136;2024-02-04T05:18:11;8.93;;;3.47;;
64199;SDS011;50516;52.272;5.136;2024-02-04T05:20:37;13.23;;;3.92;;
64199;SDS011;50516;52.272;5.136;2024-02-04T05:23:02;11.82;;;4.10;;
64199;SDS011;50516;52.272;5.136;2024-02-04T05:25:27;14.40;;;3.35;;
64199;SDS011;50516;52.272;5.136;2024-02-04T05:27:53;13.95;;;3.97;;
64199;SDS011;50516;52.272;5.136;2024-02-04T05:30:18;12.18;;;4.40;;
64199;SDS011;50516;52.272;5.136;2024-02-04T05:32:43;12.63;;;3.50;;
64199;SDS011;50516;52.272;5.136;2024-02-04T05:35:10;14.93;;;4.65;;
64199;SDS011;50516;52.272;5.136;2024-02-04T05:37:35;11.68;;;3.88;;
64199;SDS011;50516;52.272;5.136;2024-02-04T05:40:01;13.80;;;4.80;;
64199;SDS011;50516;52.272;5.136;2024-02-04T05:42:27;13.07;;;4.10;;
64199;SDS011;50516;52.272;5.136;2024-02-04T05:44:52;9.88;;;4.10;;
64199;SDS011;50516;52.272;5.136;2024-02-04T05:47:17;15.38;;;5.35;;
64199;SDS011;50516;52.272;5.136;2024-02-04T05:49:43;13.07;;;5.40;;
64199;SDS011;50516;52.272;5.136;2024-02-04T05:52:09;15.15;;;4.30;;
64199;SDS011;50516;52.272;5.136;2024-02-04T05:54:38;14.82;;;4.97;;
64199;SDS011;50516;52.272;5.136;2024-02-04T05:57:06;14.95;;;4.40;;
64199;SDS011;50516;52.272;5.136;2024-02-04T05:59:32;21.80;;;5.65;;
64199;SDS011;50516;52.272;5.136;2024-02-04T06:01:58;15.82;;;6.28;;
64199;SDS011;50516;52.272;5.136;2024-02-04T06:04:23;17.83;;;6.68;;
64199;SDS011;50516;52.272;5.136;2024-02-04T06:06:49;14.55;;;4.90;;
64199;SDS011;50516;52.272;5.136;2024-02-04T06:09:14;17.95;;;6.93;;
64199;SDS011;50516;52.272;5.136;2024-02-04T06:11:39;18.02;;;5.93;;
64199;SDS011;50516;52.272;5.136;2024-02-04T06:14:04;10.95;;;4.68;;
64199;SDS011;50516;52.272;5.136;2024-02-04T06:16:30;18.33;;;5.13;;
64199;SDS011;50516;52.272;5.136;2024-02-04T06:18:55;18.27;;;5.20;;
64199;SDS011;50516;52.272;5.136;2024-02-04T06:21:22;15.25;;;5.75;;
64199;SDS011;50516;52.272;5.136;2024-02-04T06:23:47;15.27;;;5.10;;
64199;SDS011;50516;52.272;5.136;2024-02-04T06:26:12;15.45;;;4.47;;
64199;SDS011;50516;52.272;5.136;2024-02-04T06:28:38;14.57;;;5.90;;
64199;SDS011;50516;52.272;5.136;2024-02-04T06:31:03;17.98;;;5.55;;
64199;SDS011;50516;52.272;5.136;2024-02-04T06:33:28;16.95;;;6.00;;
64199;SDS011;50516;52.272;5.136;2024-02-04T06:35:54;23.45;;;5.90;;
64199;SDS011;50516;52.272;5.136;2024-02-04T06:38:19;15.07;;;5.20;;
64199;SDS011;50516;52.272;5.136;2024-02-04T06:40:44;10.57;;;4.72;;
64199;SDS011;50516;52.272;5.136;2024-02-04T06:43:09;17.70;;;6.20;;
64199;SDS011;50516;52.272;5.136;2024-02-04T06:45:35;15.75;;;6.35;;
64199;SDS011;50516;52.272;5.136;2024-02-04T06:48:00;17.05;;;6.13;;
64199;SDS011;50516;52.272;5.136;2024-02-04T06:50:25;12.93;;;5.57;;
64199;SDS011;50516;52.272;5.136;2024-02-04T06:52:51;15.40;;;6.47;;
64199;SDS011;50516;52.272;5.136;2024-02-04T06:55:16;15.25;;;7.13;;
64199;SDS011;50516;52.272;5.136;2024-02-04T06:57:41;19.30;;;7.68;;
64199;SDS011;50516;52.272;5.136;2024-02-04T07:00:07;15.23;;;6.85;;
64199;SDS011;50516;52.272;5.136;2024-02-04T07:02:36;15.23;;;6.55;;
64199;SDS011;50516;52.272;5.136;2024-02-04T07:05:02;19.17;;;8.43;;
64199;SDS011;50516;52.272;5.136;2024-02-04T07:07:27;16.45;;;8.18;;
64199;SDS011;50516;52.272;5.136;2024-02-04T07:09:53;15.80;;;7.65;;
64199;SDS011;50516;52.272;5.136;2024-02-04T07:12:18;15.98;;;7.00;;
64199;SDS011;50516;52.272;5.136;2024-02-04T07:14:43;15.93;;;9.27;;
64199;SDS011;50516;52.272;5.136;2024-02-04T07:17:09;18.17;;;8.40;;
64199;SDS011;50516;52.272;5.136;2024-02-04T07:19:36;17.02;;;8.82;;
64199;SDS011;50516;52.272;5.136;2024-02-04T07:22:01;21.48;;;8.73;;
64199;SDS011;50516;52.272;5.136;2024-02-04T07:24:27;18.60;;;8.77;;
64199;SDS011;50516;52.272;5.136;2024-02-04T07:26:52;15.15;;;8.18;;
64199;SDS011;50516;52.272;5.136;2024-02-04T07:29:17;24.40;;;9.93;;
64199;SDS011;50516;52.272;5.136;2024-02-04T07:31:43;25.10;;;8.55;;
64199;SDS011;50516;52.272;5.136;2024-02-04T07:34:08;19.25;;;7.75;;
64199;SDS011;50516;52.272;5.136;2024-02-04T07:36:33;14.75;;;7.10;;
64199;SDS011;50516;52.272;5.136;2024-02-04T07:38:59;20.33;;;7.22;;
64199;SDS011;50516;52.272;5.136;2024-02-04T07:41:24;12.93;;;5.53;;
64199;SDS011;50516;52.272;5.136;2024-02-04T07:43:50;16.45;;;5.80;;
64199;SDS011;50516;52.272;5.136;2024-02-04T07:46:16;12.00;;;5.95;;
64199;SDS011;50516;52.272;5.136;2024-02-04T07:48:41;11.43;;;5.63;;
64199;SDS011;50516;52.272;5.136;2024-02-04T07:51:06;16.88;;;5.00;;
64199;SDS011;50516;52.272;5.136;2024-02-04T07:53:33;16.48;;;5.07;;
64199;SDS011;50516;52.272;5.136;2024-02-04T07:55:58;11.30;;;5.03;;
64199;SDS011;50516;52.272;5.136;2024-02-04T07:58:23;13.43;;;5.50;;
64199;SDS011;50516;52.272;5.136;2024-02-04T08:00:49;14.70;;;6.25;;
64199;SDS011;50516;52.272;5.136;2024-02-04T08:03:14;10.63;;;4.53;;
64199;SDS011;50516;52.272;5.136;2024-02-04T08:05:40;25.80;;;5.05;;
64199;SDS011;50516;52.272;5.136;2024-02-04T08:08:06;13.43;;;3.97;;
64199;SDS011;50516;52.272;5.136;2024-02-04T08:10:31;9.48;;;4.25;;
64199;SDS011;50516;52.272;5.136;2024-02-04T08:12:57;13.95;;;4.32;;
64199;SDS011;50516;52.272;5.136;2024-02-04T08:15:22;12.52;;;4.70;;
64199;SDS011;50516;52.272;5.136;2024-02-04T08:17:47;14.27;;;4.50;;
64199;SDS011;50516;52.272;5.136;2024-02-04T08:20:13;11.88;;;3.80;;
64199;SDS011;50516;52.272;5.136;2024-02-04T08:22:38;7.75;;;4.22;;
64199;SDS011;50516;52.272;5.136;2024-02-04T08:25:04;9.98;;;3.55;;
64199;SDS011;50516;52.272;5.136;2024-02-04T08:27:30;9.73;;;3.15;;
64199;SDS011;50516;52.272;5.136;2024-02-04T08:29:56;10.82;;;3.30;;
64199;SDS011;50516;52.272;5.136;2024-02-04T08:32:21;9.20;;;3.58;;
64199;SDS011;50516;52.272;5.136;2024-02-04T08:34:46;9.50;;;3.72;;
64199;SDS011;50516;52.272;5.136;2024-02-04T08:37:11;8.48;;;3.30;;
64199;SDS011;50516;52.272;5.136;2024-02-04T08:39:37;12.35;;;3.42;;
64199;SDS011;50516;52.272;5.136;2024-02-04T08:42:02;12.07;;;3.90;;
64199;SDS011;50516;52.272;5.136;2024-02-04T08:44:28;11.50;;;4.85;;
64199;SDS011;50516;52.272;5.136;2024-02-04T08:46:53;15.98;;;4.28;;
64199;SDS011;50516;52.272;5.136;2024-02-04T08:49:20;12.65;;;4.93;;
64199;SDS011;50516;52.272;5.136;2024-02-04T08:51:45;17.05;;;5.72;;
64199;SDS011;50516;52.272;5.136;2024-02-04T08:54:11;15.98;;;6.03;;
64199;SDS011;50516;52.272;5.136;2024-02-04T08:56:36;12.32;;;5.82;;
64199;SDS011;50516;52.272;5.136;2024-02-04T08:59:01;13.85;;;7.50;;
64199;SDS011;50516;52.272;5.136;2024-02-04T09:01:27;14.82;;;6.40;;
64199;SDS011;50516;52.272;5.136;2024-02-04T09:03:52;20.67;;;6.97;;
64199;SDS011;50516;52.272;5.136;2024-02-04T09:06:18;20.33;;;6.80;;
64199;SDS011;50516;52.272;5.136;2024-02-04T09:08:43;17.70;;;6.68;;
64199;SDS011;50516;52.272;5.136;2024-02-04T09:11:08;20.95;;;6.68;;
64199;SDS011;50516;52.272;5.136;2024-02-04T09:13:34;12.20;;;4.90;;
64199;SDS011;50516;52.272;5.136;2024-02-04T09:15:59;17.75;;;5.40;;
64199;SDS011;50516;52.272;5.136;2024-02-04T09:18:24;15.48;;;4.43;;
64199;SDS011;50516;52.272;5.136;2024-02-04T09:20:49;14.90;;;5.35;;
64199;SDS011;50516;52.272;5.136;2024-02-04T09:23:15;15.50;;;3.97;;
64199;SDS011;50516;52.272;5.136;2024-02-04T09:25:40;10.63;;;4.05;;
64199;SDS011;50516;52.272;5.136;2024-02-04T09:28:06;6.18;;;3.50;;
64199;SDS011;50516;52.272;5.136;2024-02-04T09:30:31;11.00;;;3.72;;
64199;SDS011;50516;52.272;5.136;2024-02-04T09:32:56;12.18;;;4.07;;
64199;SDS011;50516;52.272;5.136;2024-02-04T09:35:22;12.63;;;4.05;;
64199;SDS011;50516;52.272;5.136;2024-02-04T09:37:47;13.45;;;3.95;;
64199;SDS011;50516;52.272;5.136;2024-02-04T09:40:13;10.93;;;3.70;;
64199;SDS011;50516;52.272;5.136;2024-02-04T09:42:38;9.82;;;2.80;;
64199;SDS011;50516;52.272;5.136;2024-02-04T09:45:04;12.82;;;3.20;;
64199;SDS011;50516;52.272;5.136;2024-02-04T09:47:30;9.82;;;2.90;;
64199;SDS011;50516;52.272;5.136;2024-02-04T09:49:59;8.63;;;3.55;;
64199;SDS011;50516;52.272;5.136;2024-02-04T09:52:29;13.73;;;3.25;;
64199;SDS011;50516;52.272;5.136;2024-02-04T09:55:01;7.28;;;3.00;;
64199;SDS011;50516;52.272;5.136;2024-02-04T09:57:29;10.45;;;3.47;;
64199;SDS011;50516;52.272;5.136;2024-02-04T09:59:55;7.80;;;3.47;;
64199;SDS011;50516;52.272;5.136;2024-02-04T10:02:20;7.72;;;2.53;;
64199;SDS011;50516;52.272;5.136;2024-02-04T10:04:46;9.50;;;3.63;;
64199;SDS011;50516;52.272;5.136;2024-02-04T10:07:11;8.77;;;3.15;;
64199;SDS011;50516;52.272;5.136;2024-02-04T10:09:39;9.77;;;3.30;;
64199;SDS011;50516;52.272;5.136;2024-02-04T10:12:04;10.05;;;3.35;;
64199;SDS011;50516;52.272;5.136;2024-02-04T10:14:30;7.82;;;2.50;;
64199;SDS011;50516;52.272;5.136;2024-02-04T10:16:56;9.15;;;2.92;;
64199;SDS011;50516;52.272;5.136;2024-02-04T10:19:24;7.57;;;3.15;;
64199;SDS011;50516;52.272;5.136;2024-02-04T10:22:03;5.13;;;2.83;;
64199;SDS011;50516;52.272;5.136;2024-02-04T10:24:29;6.30;;;2.70;;
64199;SDS011;50516;52.272;5.136;2024-02-04T10:26:55;7.78;;;2.50;;
64199;SDS011;50516;52.272;5.136;2024-02-04T10:29:22;6.03;;;2.42;;
64199;SDS011;50516;52.272;5.136;2024-02-04T10:31:48;10.52;;;3.50;;
64199;SDS011;50516;52.272;5.136;2024-02-04T10:34:14;11.13;;;3.08;;
64199;SDS011;50516;52.272;5.136;2024-02-04T10:36:39;9.15;;;2.65;;
64199;SDS011;50516;52.272;5.136;2024-02-04T10:39:05;10.43;;;3.45;;
64199;SDS011;50516;52.272;5.136;2024-02-04T10:41:31;6.80;;;3.13;;
64199;SDS011;50516;52.272;5.136;2024-02-04T10:43:59;8.32;;;2.70;;
64199;SDS011;50516;52.272;5.136;2024-02-04T10:46:29;5.03;;;1.98;;
64199;SDS011;50516;52.272;5.136;2024-02-04T10:48:56;9.02;;;2.30;;
64199;SDS011;50516;52.272;5.136;2024-02-04T10:51:25;6.55;;;2.40;;
64199;SDS011;50516;52.272;5.136;2024-02-04T10:53:51;5.50;;;2.75;;
64199;SDS011;50516;52.272;5.136;2024-02-04T10:58:52;7.38;;;2.50;;
64199;SDS011;50516;52.272;5.136;2024-02-04T11:01:18;8.70;;;3.22;;
64199;SDS011;50516;52.272;5.136;2024-02-04T11:03:43;7.28;;;2.55;;
64199;SDS011;50516;52.272;5.136;2024-02-04T11:06:11;3.95;;;2.45;;
64199;SDS011;50516;52.272;5.136;2024-02-04T11:08:38;7.45;;;2.08;;
64199;SDS011;50516;52.272;5.136;2024-02-04T11:11:04;5.43;;;2.10;;
64199;SDS011;50516;52.272;5.136;2024-02-04T11:13:29;4.22;;;2.20;;
64199;SDS011;50516;52.272;5.136;2024-02-04T11:15:57;5.85;;;2.22;;
64199;SDS011;50516;52.272;5.136;2024-02-04T11:26:41;5.95;;;2.70;;
64199;SDS011;50516;52.272;5.136;2024-02-04T11:29:07;6.57;;;2.53;;
64199;SDS011;50516;52.272;5.136;2024-02-04T11:31:34;11.27;;;3.58;;
64199;SDS011;50516;52.272;5.136;2024-02-04T11:34:04;8.18;;;2.97;;
64199;SDS011;50516;52.272;5.136;2024-02-04T11:36:37;8.45;;;2.90;;
64199;SDS011;50516;52.272;5.136;2024-02-04T11:39:17;10.52;;;3.45;;
64199;SDS011;50516;52.272;5.136;2024-02-04T11:41:46;8.95;;;3.60;;
64199;SDS011;50516;52.272;5.136;2024-02-04T11:44:12;18.98;;;5.05;;
64199;SDS011;50516;52.272;5.136;2024-02-04T11:46:38;14.05;;;4.25;;
64199;SDS011;50516;52.272;5.136;2024-02-04T11:49:03;16.55;;;4.90;;
64199;SDS011;50516;52.272;5.136;2024-02-04T11:51:28;17.08;;;4.30;;
64199;SDS011;50516;52.272;5.136;2024-02-04T11:53:55;22.83;;;5.38;;
64199;SDS011;50516;52.272;5.136;2024-02-04T11:56:21;16.90;;;5.28;;
64199;SDS011;50516;52.272;5.136;2024-02-04T11:58:46;31.77;;;5.65;;
64199;SDS011;50516;52.272;5.136;2024-02-04T12:01:12;11.85;;;4.85;;
64199;SDS011;50516;52.272;5.136;2024-02-04T12:03:37;11.65;;;4.22;;
64199;SDS011;50516;52.272;5.136;2024-02-04T12:06:03;12.85;;;3.47;;
64199;SDS011;50516;52.272;5.136;2024-02-04T12:08:30;15.73;;;4.40;;
64199;SDS011;50516;52.272;5.136;2024-02-04T12:10:57;20.67;;;5.05;;
64199;SDS011;50516;52.272;5.136;2024-02-04T12:13:23;20.88;;;4.50;;
64199;SDS011;50516;52.272;5.136;2024-02-04T12:15:49;15.93;;;4.38;;
64199;SDS011;50516;52.272;5.136;2024-02-04T12:18:15;18.15;;;4.55;;
64199;SDS011;50516;52.272;5.136;2024-02-04T12:20:45;17.00;;;4.43;;
64199;SDS011;50516;52.272;5.136;2024-02-04T12:23:11;20.77;;;4.05;;
64199;SDS011;50516;52.272;5.136;2024-02-04T12:25:37;11.05;;;3.78;;
64199;SDS011;50516;52.272;5.136;2024-02-04T12:28:03;14.23;;;4.05;;
64199;SDS011;50516;52.272;5.136;2024-02-04T12:30:29;13.57;;;4.13;;
64199;SDS011;50516;52.272;5.136;2024-02-04T12:32:58;15.75;;;4.25;;
64199;SDS011;50516;52.272;5.136;2024-02-04T12:35:27;18.33;;;4.47;;
64199;SDS011;50516;52.272;5.136;2024-02-04T12:37:53;15.77;;;3.55;;
64199;SDS011;50516;52.272;5.136;2024-02-04T12:40:23;16.13;;;4.53;;
64199;SDS011;50516;52.272;5.136;2024-02-04T12:42:53;24.08;;;4.78;;
64199;SDS011;50516;52.272;5.136;2024-02-04T12:45:19;17.95;;;4.07;;
64199;SDS011;50516;52.272;5.136;2024-02-04T12:47:48;15.13;;;4.10;;
64199;SDS011;50516;52.272;5.136;2024-02-04T12:50:14;14.48;;;4.00;;
64199;SDS011;50516;52.272;5.136;2024-02-04T12:52:41;17.20;;;4.65;;
64199;SDS011;50516;52.272;5.136;2024-02-04T12:55:06;17.08;;;3.88;;
64199;SDS011;50516;52.272;5.136;2024-02-04T12:57:32;15.80;;;4.18;;
64199;SDS011;50516;52.272;5.136;2024-02-04T13:00:39;20.83;;;4.57;;
64199;SDS011;50516;52.272;5.136;2024-02-04T13:02:48;19.10;;;4.60;;
64199;SDS011;50516;52.272;5.136;2024-02-04T13:05:21;17.98;;;3.88;;
64199;SDS011;50516;52.272;5.136;2024-02-04T13:07:56;15.95;;;3.75;;
64199;SDS011;50516;52.272;5.136;2024-02-04T13:10:36;15.38;;;3.95;;
64199;SDS011;50516;52.272;5.136;2024-02-04T13:13:02;16.00;;;4.60;;
64199;SDS011;50516;52.272;5.136;2024-02-04T13:15:35;10.85;;;3.85;;
64199;SDS011;50516;52.272;5.136;2024-02-04T13:18:03;11.98;;;3.65;;
64199;SDS011;50516;52.272;5.136;2024-02-04T13:20:28;10.85;;;3.80;;
64199;SDS011;50516;52.272;5.136;2024-02-04T13:22:54;15.68;;;4.45;;
64199;SDS011;50516;52.272;5.136;2024-02-04T13:25:20;14.18;;;3.78;;
64199;SDS011;50516;52.272;5.136;2024-02-04T13:27:46;17.30;;;4.03;;
64199;SDS011;50516;52.272;5.136;2024-02-04T13:30:13;14.70;;;3.63;;
64199;SDS011;50516;52.272;5.136;2024-02-04T13:32:41;8.77;;;3.10;;
64199;SDS011;50516;52.272;5.136;2024-02-04T13:35:08;12.82;;;3.80;;
64199;SDS011;50516;52.272;5.136;2024-02-04T13:37:41;17.60;;;4.55;;
64199;SDS011;50516;52.272;5.136;2024-02-04T13:40:11;13.35;;;4.53;;
64199;SDS011;50516;52.272;5.136;2024-02-04T13:42:38;12.68;;;4.05;;
64199;SDS011;50516;52.272;5.136;2024-02-04T13:45:04;14.20;;;4.68;;
64199;SDS011;50516;52.272;5.136;2024-02-04T13:47:29;12.50;;;3.85;;
64199;SDS011;50516;52.272;5.136;2024-02-04T13:49:55;11.63;;;4.68;;
64199;SDS011;50516;52.272;5.136;2024-02-04T13:52:23;14.63;;;4.03;;
64199;SDS011;50516;52.272;5.136;2024-02-04T13:54:48;13.50;;;3.55;;
64199;SDS011;50516;52.272;5.136;2024-02-04T13:57:14;12.77;;;4.07;;
64199;SDS011;50516;52.272;5.136;2024-02-04T13:59:40;16.23;;;3.92;;
64199;SDS011;50516;52.272;5.136;2024-02-04T14:02:05;17.35;;;4.72;;
64199;SDS011;50516;52.272;5.136;2024-02-04T14:04:33;14.02;;;4.45;;
64199;SDS011;50516;52.272;5.136;2024-02-04T14:06:58;15.00;;;3.70;;
64199;SDS011;50516;52.272;5.136;2024-02-04T14:09:24;14.63;;;3.55;;
64199;SDS011;50516;52.272;5.136;2024-02-04T14:11:49;13.80;;;3.63;;
64199;SDS011;50516;52.272;5.136;2024-02-04T14:14:14;10.93;;;3.78;;
64199;SDS011;50516;52.272;5.136;2024-02-04T14:16:40;9.30;;;3.45;;
64199;SDS011;50516;52.272;5.136;2024-02-04T14:19:05;9.13;;;3.22;;
64199;SDS011;50516;52.272;5.136;2024-02-04T14:21:30;7.03;;;3.10;;
64199;SDS011;50516;52.272;5.136;2024-02-04T14:23:56;10.02;;;3.65;;
64199;SDS011;50516;52.272;5.136;2024-02-04T14:26:21;11.75;;;3.83;;
64199;SDS011;50516;52.272;5.136;2024-02-04T14:28:47;13.07;;;3.80;;
64199;SDS011;50516;52.272;5.136;2024-02-04T14:31:13;9.10;;;3.05;;
64199;SDS011;50516;52.272;5.136;2024-02-04T14:33:38;11.57;;;3.28;;
64199;SDS011;50516;52.272;5.136;2024-02-04T14:36:04;12.02;;;3.30;;
64199;SDS011;50516;52.272;5.136;2024-02-04T14:38:31;13.60;;;3.85;;
64199;SDS011;50516;52.272;5.136;2024-02-04T14:40:57;13.48;;;3.58;;
64199;SDS011;50516;52.272;5.136;2024-02-04T14:43:23;10.65;;;3.40;;
64199;SDS011;50516;52.272;5.136;2024-02-04T14:45:49;8.13;;;3.05;;